Terminal Aerodrome Forecast
Issued by NWS

Home | Current Version | Previous Version | Text Only | Print | Product List | Glossary Off
Versions: 1 2 3 4 5 6 7 8 9 10 11 12 13 14 15

482
FTUS43 KBIS 190520
TAFJMS
TAF
KJMS 190520Z 1906/2006 16004KT P6SM SKC
     FM191300 16009KT P6SM SCT100 BKN200
     FM191500 16010KT P6SM VCTS BKN090CB
      TEMPO 1916/1918 3SM TSRA BKN060CB
     FM191800 14009KT P6SM SCT050
     FM192100 11007KT P6SM VCTS FEW060CB FEW140
     FM200300 17005KT P6SM FEW080 FEW200=

USA.gov is the U.S. government's official web portal to all federal, state and local government web resources and services.